Time;durP1;ratioP1;P1;durP2;ratioP2;P2;SDS_P1;SDS_P2;PMS_P1;PMS_P2;Temp;Humidity;BMP_temperature;BMP_pressure;BME280_temperature;BME280_humidity;BME280_pressure;Samples;Min_cycle;Max_cycle;Signal;HPM_P1;HPM_P2
2022/09/20 00:01:53;;;;;;;5.70;0.75;;;;;;;9.08;49.64;101918.06;5006551;28;20044;-65
2022/09/20 00:04:18;;;;;;;4.75;0.38;;;;;;;9.01;49.74;101921.63;5007076;28;20037;-65
2022/09/20 00:06:44;;;;;;;7.63;0.68;;;;;;;8.95;49.66;101923.47;5006832;28;20068;-65
2022/09/20 00:09:09;;;;;;;4.10;0.77;;;;;;;8.87;49.97;101924.47;5008350;28;20041;-67
2022/09/20 00:11:35;;;;;;;7.25;0.50;;;;;;;8.71;50.65;101931.66;5008398;28;20260;-67
2022/09/20 00:14:04;;;;;;;14.50;0.57;;;;;;;8.75;50.63;101935.97;4992203;28;20143;-67
2022/09/20 00:16:33;;;;;;;15.43;0.45;;;;;;;8.80;50.06;101931.53;5008386;28;20407;-69
2022/09/20 00:19:02;;;;;;;15.98;1.13;;;;;;;8.85;49.95;101932.34;5008238;28;20048;-69
2022/09/20 00:21:30;;;;;;;6.43;0.43;;;;;;;8.87;50.44;101946.19;4996015;28;20052;-69
2022/09/20 00:23:56;;;;;;;8.35;0.65;;;;;;;8.93;50.18;101934.81;5007225;28;20049;-69
2022/09/20 00:26:23;;;;;;;7.38;0.20;;;;;;;8.97;50.16;101939.09;5009041;28;20477;-68
2022/09/20 00:28:50;;;;;;;7.63;0.73;;;;;;;8.94;50.18;101947.81;5014017;28;20038;-69
2022/09/20 00:31:16;;;;;;;7.53;0.68;;;;;;;9.02;49.63;101945.09;5008359;28;20213;-68
2022/09/20 00:36:26;;;;;;;1.95;0.20;;;;;;;9.07;49.31;101947.63;5010977;28;20033;-69
2022/09/20 00:38:56;;;;;;;4.82;0.10;;;;;;;9.08;49.04;101945.00;5009428;28;20060;-68
2022/09/20 00:41:22;;;;;;;1.00;0.10;;;;;;;9.04;49.22;101947.69;5012630;28;20095;-68
2022/09/20 00:43:48;;;;;;;2.97;0.20;;;;;;;9.01;49.33;101942.50;5013383;28;20048;-68
2022/09/20 00:46:26;;;;;;;3.20;0.17;;;;;;;9.01;49.48;101952.91;5007287;28;20072;-69
2022/09/20 00:48:58;;;;;;;2.67;0.10;;;;;;;8.99;49.86;101942.53;5006980;28;20042;-68
2022/09/20 00:51:37;;;;;;;4.32;0.60;;;;;;;9.04;49.99;101943.31;5008421;28;20258;-70
2022/09/20 00:54:05;;;;;;;3.97;0.28;;;;;;;9.06;50.08;101940.69;5008680;28;20046;-68
2022/09/20 00:56:35;;;;;;;2.58;0.13;;;;;;;9.10;50.26;101948.44;4996164;28;20066;-68
2022/09/20 00:59:30;;;;;;;5.72;1.65;;;;;;;9.08;49.86;101942.38;5011231;28;20433;-68
2022/09/20 01:02:05;;;;;;;6.05;0.50;;;;;;;8.93;50.10;101935.66;5006677;28;20647;-68
2022/09/20 01:04:33;;;;;;;3.88;0.45;;;;;;;8.85;50.31;101937.56;5007526;28;20033;-68
2022/09/20 01:07:02;;;;;;;6.18;0.28;;;;;;;8.72;50.80;101946.44;4986010;28;20045;-68
2022/09/20 01:09:28;;;;;;;5.72;0.60;;;;;;;8.63;51.30;101947.41;5006484;28;20458;-68
2022/09/20 01:11:56;;;;;;;4.63;0.73;;;;;;;8.54;51.43;101948.41;5007930;28;20109;-68
2022/09/20 01:14:24;;;;;;;3.08;0.22;;;;;;;8.45;51.51;101956.34;5012426;28;20510;-67
2022/09/20 01:16:56;;;;;;;4.18;0.28;;;;;;;8.37;51.74;101960.78;5013496;28;24904;-68
2022/09/20 01:19:38;;;;;;;3.75;0.22;;;;;;;8.31;51.94;101958.25;5012489;28;20087;-67
2022/09/20 01:22:13;;;;;;;2.22;0.20;;;;;;;8.24;51.93;101959.22;4993999;28;20049;-68
2022/09/20 01:25:01;;;;;;;6.72;0.68;;;;;;;8.20;52.34;101958.38;5009550;28;20038;-74
2022/09/20 01:27:51;;;;;;;3.40;0.52;;;;;;;8.30;51.93;101959.16;4999644;28;20064;-75
2022/09/20 01:30:37;;;;;;;5.45;0.40;;;;;;;8.31;52.14;101955.66;5006117;28;20132;-74
2022/09/20 01:33:43;;;;;;;4.85;0.28;;;;;;;8.29;52.03;101954.81;5025353;28;20045;-74
2022/09/20 01:36:15;;;;;;;1.27;0.22;;;;;;;8.42;52.10;101953.75;4991118;28;20081;-74
2022/09/20 01:38:47;;;;;;;3.55;0.30;;;;;;;8.43;51.85;101962.47;5013324;28;20457;-75
2022/09/20 01:41:20;;;;;;;3.85;0.47;;;;;;;8.42;52.25;101969.41;5001032;28;20192;-75
2022/09/20 01:44:12;;;;;;;4.22;0.63;;;;;;;8.35;53.02;101978.19;5011140;28;20132;-74
2022/09/20 01:46:41;;;;;;;2.50;0.15;;;;;;;8.24;54.40;101975.72;5009971;28;20037;-74
2022/09/20 01:49:12;;;;;;;2.45;0.10;;;;;;;8.33;54.84;101979.94;5013621;28;20033;-66
2022/09/20 01:52:07;;;;;;;4.35;0.13;;;;;;;8.57;54.33;101976.16;5013660;28;20100;-68
2022/09/20 01:54:41;;;;;;;4.70;0.20;;;;;;;8.80;53.65;101975.84;5012171;28;20535;-68
2022/09/20 01:57:09;;;;;;;8.88;0.38;;;;;;;8.87;53.62;101972.25;5013371;28;20136;-68
2022/09/20 01:59:44;;;;;;;6.28;0.43;;;;;;;8.99;53.62;101976.44;5010924;28;20458;-68
2022/09/20 02:02:38;;;;;;;2.22;0.40;;;;;;;9.21;52.96;101974.34;5015720;28;20065;-68
2022/09/20 02:05:12;;;;;;;8.48;1.15;;;;;;;9.25;53.01;101975.13;5010626;28;20077;-68
2022/09/20 02:08:14;;;;;;;2.30;0.17;;;;;;;9.34;52.98;101975.84;5011012;28;20071;-68
2022/09/20 02:10:49;;;;;;;2.70;0.32;;;;;;;9.44;52.89;101978.31;5009351;28;20033;-67
2022/09/20 02:13:38;;;;;;;5.68;0.40;;;;;;;9.42;52.55;101980.06;4996935;28;20034;-64
2022/09/20 02:16:28;;;;;;;6.70;0.20;;;;;;;9.34;52.57;101978.47;5012844;28;20064;-65
2022/09/20 02:19:25;;;;;;;5.35;0.85;;;;;;;9.17;52.83;101985.72;5011482;28;20045;-64
2022/09/20 02:22:25;;;;;;;3.72;0.25;;;;;;;9.19;52.45;101976.13;5008990;28;20049;-64
2022/09/20 02:25:07;;;;;;;3.47;0.60;;;;;;;9.11;52.84;101970.16;5002013;28;20427;-64
2022/09/20 02:27:52;;;;;;;;;;;;;;;9.24;52.59;101976.88;5011265;28;20461;-64
2022/09/20 02:30:51;;;;;;;7.10;0.77;;;;;;;9.29;52.37;101972.44;5032118;28;20370;-63
2022/09/20 02:33:27;;;;;;;3.03;0.35;;;;;;;9.38;52.50;101977.50;5008704;28;20334;-63
2022/09/20 02:36:21;;;;;;;0.60;0.10;;;;;;;9.39;52.13;101979.25;5009169;28;20128;-63
2022/09/20 02:39:12;;;;;;;2.05;0.22;;;;;;;9.41;52.30;101976.63;5000565;28;20045;-64
2022/09/20 02:41:56;;;;;;;3.35;0.22;;;;;;;9.43;52.31;101977.41;5009820;28;20033;-63
2022/09/20 02:44:28;;;;;;;2.08;0.17;;;;;;;9.41;52.27;101976.63;5010838;28;20498;-63
2022/09/20 02:47:23;;;;;;;6.32;0.20;;;;;;;9.45;52.31;101974.78;5030111;28;20046;-63
2022/09/20 02:50:10;;;;;;;2.33;0.10;;;;;;;9.36;52.28;101971.44;5011911;28;20037;-64
2022/09/20 02:52:41;;;;;;;3.60;0.30;;;;;;;9.35;52.49;101974.09;5010947;28;20160;-64
2022/09/20 02:55:15;;;;;;;4.43;0.50;;;;;;;9.38;52.24;101979.25;5008485;28;20033;-65
2022/09/20 02:57:49;;;;;;;2.33;0.20;;;;;;;9.28;51.86;101977.72;5008196;28;20041;-66
2022/09/20 03:00:20;;;;;;;4.78;0.38;;;;;;;9.21;52.30;101981.28;5010192;28;20030;-66
2022/09/20 03:03:04;;;;;;;4.57;0.47;;;;;;;9.28;51.95;101983.78;5009496;28;20049;-66
2022/09/20 03:05:50;;;;;;;4.05;0.40;;;;;;;9.23;51.93;101985.63;5014786;28;20057;-66
2022/09/20 03:08:27;;;;;;;1.98;0.30;;;;;;;9.19;52.17;101986.56;5010545;28;20045;-65
2022/09/20 03:11:26;;;;;;;0.75;0.20;;;;;;;9.12;51.82;101977.06;5014674;28;20041;-65
2022/09/20 03:14:07;;;;;;;1.17;0.30;;;;;;;9.02;52.24;101986.81;5023153;28;20116;-68
2022/09/20 03:16:50;;;;;;;1.83;0.10;;;;;;;8.89;52.83;101986.13;5007272;28;20402;-68
2022/09/20 03:19:26;;;;;;;4.72;0.10;;;;;;;8.81;52.70;101980.19;5011603;28;20280;-68
2022/09/20 03:22:13;;;;;;;6.10;0.43;;;;;;;8.63;53.20;101983.00;5007351;28;20575;-68
2022/09/20 03:24:57;;;;;;;9.98;0.40;;;;;;;8.50;53.28;101991.00;5011450;28;20044;-67
2022/09/20 03:27:34;;;;;;;3.63;0.13;;;;;;;8.38;53.45;101988.53;5009156;28;20111;-67
2022/09/20 03:30:14;;;;;;;4.97;0.20;;;;;;;8.35;53.42;101986.84;5007749;28;20309;-67
2022/09/20 03:33:09;;;;;;;5.75;0.17;;;;;;;8.25;53.56;101989.59;5024737;28;20121;-71
2022/09/20 03:35:54;;;;;;;1.70;0.10;;;;;;;8.13;53.40;101994.06;5029914;28;20038;-67
2022/09/20 03:38:53;;;;;;;0.65;0.10;;;;;;;7.93;53.94;101989.09;5010219;28;20037;-67
2022/09/20 03:41:22;;;;;;;1.38;0.38;;;;;;;7.97;54.16;101995.13;5010018;28;20037;-66
2022/09/20 03:43:56;;;;;;;1.30;0.25;;;;;;;7.95;54.08;101983.88;5009296;28;20049;-66
2022/09/20 03:46:29;;;;;;;1.92;0.10;;;;;;;7.96;53.91;101983.00;5009313;28;20203;-67
2022/09/20 03:49:29;;;;;;;5.35;0.20;;;;;;;7.93;54.27;101983.88;5009414;28;20168;-65
2022/09/20 03:52:23;;;;;;;4.38;0.30;;;;;;;7.95;54.46;101989.06;5010770;28;20630;-67
2022/09/20 03:55:32;;;;;;;1.90;0.10;;;;;;;7.91;54.43;101987.38;4983223;28;20049;-66
2022/09/20 03:58:27;;;;;;;6.35;0.40;;;;;;;7.92;55.04;101983.91;5012406;28;20061;-66
2022/09/20 04:00:55;;;;;;;7.30;0.60;;;;;;;8.08;55.16;101990.66;5006872;28;20078;-65
2022/09/20 04:03:29;;;;;;;0.90;0.10;;;;;;;8.23;54.59;101999.19;5009141;28;20104;-66
2022/09/20 04:06:13;;;;;;;4.50;0.45;;;;;;;8.28;54.64;101997.38;5007453;28;20521;-66
2022/09/20 04:09:07;;;;;;;2.47;0.55;;;;;;;8.43;54.34;101993.72;5009522;28;20038;-66
2022/09/20 04:11:54;;;;;;;2.33;0.10;;;;;;;8.41;54.66;101987.69;4997589;28;20063;-65
2022/09/20 04:14:33;;;;;;;2.28;0.43;;;;;;;8.46;54.69;101997.13;5010332;28;20084;-65
2022/09/20 04:17:37;;;;;;;3.03;0.30;;;;;;;8.48;54.82;101995.38;5008704;28;20071;-65
2022/09/20 04:20:27;;;;;;;1.67;0.10;;;;;;;8.64;54.87;101995.16;5008255;28;20072;-66
2022/09/20 04:22:56;;;;;;;2.22;0.10;;;;;;;8.76;54.73;101997.63;5009140;28;20142;-65
2022/09/20 04:25:29;;;;;;;4.50;0.60;;;;;;;8.83;54.38;102001.00;5030203;28;20051;-65
2022/09/20 04:28:12;;;;;;;1.52;0.17;;;;;;;8.88;54.35;101999.22;5007579;28;20045;-66
2022/09/20 04:30:42;;;;;;;3.17;0.60;;;;;;;8.84;54.44;102000.13;5009953;28;20125;-66
2022/09/20 04:33:14;;;;;;;6.88;1.00;;;;;;;8.82;54.71;102000.16;5008755;28;20048;-66
2022/09/20 04:38:34;;;;;;;3.15;0.20;;;;;;;8.85;54.68;102007.94;5014516;28;20588;-66
2022/09/20 04:41:15;;;;;;;6.15;0.60;;;;;;;8.82;54.73;102005.34;5011229;28;20286;-65
2022/09/20 04:44:20;;;;;;;3.15;0.20;;;;;;;8.76;54.89;102005.44;5011498;28;20052;-64
2022/09/20 04:47:14;;;;;;;6.90;0.20;;;;;;;8.79;55.07;102008.03;5011577;28;20304;-64
2022/09/20 04:50:06;;;;;;;4.68;0.50;;;;;;;8.82;55.34;102010.56;5013666;28;20405;-66
2022/09/20 04:52:50;;;;;;;2.83;0.13;;;;;;;8.95;55.13;102022.53;5010148;28;20226;-67
2022/09/20 04:55:34;;;;;;;1.63;0.22;;;;;;;8.84;54.84;102015.78;5009779;28;20034;-67
2022/09/20 04:58:47;;;;;;;1.60;0.10;;;;;;;8.78;55.01;102014.09;5006582;28;20052;-67
2022/09/20 05:01:15;;;;;;;3.80;0.30;;;;;;;8.69;55.14;102019.41;4984915;28;20069;-66
2022/09/20 05:04:14;;;;;;;1.73;0.63;;;;;;;8.62;55.34;102017.78;5009378;28;20723;-66
2022/09/20 05:07:15;;;;;;;4.38;0.30;;;;;;;8.54;55.06;102015.28;5006946;28;20044;-66
2022/09/20 05:09:49;;;;;;;2.40;0.13;;;;;;;8.43;55.18;102018.03;5002276;28;20084;-65
2022/09/20 05:12:39;;;;;;;2.08;0.20;;;;;;;8.35;55.25;102035.50;5009044;28;20061;-65
2022/09/20 05:15:27;;;;;;;2.53;0.30;;;;;;;8.32;55.45;102035.53;5007114;28;20569;-64
2022/09/20 05:18:33;;;;;;;2.08;0.20;;;;;;;8.30;55.71;102037.31;5008091;28;20046;-65
2022/09/20 05:21:11;;;;;;;3.88;0.20;;;;;;;8.35;55.87;102048.50;5007584;28;20038;-64
2022/09/20 05:24:00;;;;;;;2.00;0.25;;;;;;;8.45;56.42;102063.16;5007492;28;20058;-70
2022/09/20 05:26:50;;;;;;;11.55;0.55;;;;;;;8.44;56.79;102066.63;5008485;28;20071;-68
2022/09/20 05:29:33;;;;;;;4.72;0.60;;;;;;;8.53;56.40;102076.94;4990319;28;20056;-66
2022/09/20 05:32:17;;;;;;;5.93;0.30;;;;;;;8.20;57.79;102077.34;5007968;28;20041;-66
2022/09/20 05:35:21;;;;;;;1.98;0.30;;;;;;;8.39;56.83;102085.81;5006337;28;20113;-66
2022/09/20 05:38:10;;;;;;;6.28;0.10;;;;;;;8.24;57.16;102084.25;5005241;28;20088;-65
2022/09/20 05:40:48;;;;;;;3.08;0.20;;;;;;;8.03;57.50;102087.94;5008719;28;20048;-67
2022/09/20 05:43:25;;;;;;;6.10;0.30;;;;;;;8.13;56.62;102086.97;5007784;28;20050;-67
2022/09/20 05:46:21;;;;;;;4.63;0.30;;;;;;;7.94;56.91;102086.28;5012126;28;20041;-67
2022/09/20 05:49:10;;;;;;;2.50;0.25;;;;;;;8.09;55.95;102091.34;4989138;28;20046;-66
2022/09/20 05:51:50;;;;;;;1.67;0.15;;;;;;;8.11;55.71;102089.59;5012025;28;20052;-66
2022/09/20 05:54:38;;;;;;;2.72;0.40;;;;;;;7.94;55.89;102086.28;5010218;28;20030;-64
2022/09/20 05:57:16;;;;;;;2.58;0.10;;;;;;;8.17;55.18;102090.41;5012056;28;20045;-65
2022/09/20 06:00:03;;;;;;;6.90;0.73;;;;;;;7.98;56.08;102090.59;5011018;28;20397;-65
2022/09/20 06:03:01;;;;;;;3.08;0.35;;;;;;;8.23;55.69;102093.81;5010489;28;20060;-65
2022/09/20 06:05:39;;;;;;;0.30;0.10;;;;;;;8.49;54.85;102087.44;5012447;28;20030;-65
2022/09/20 06:08:11;;;;;;;3.33;0.20;;;;;;;8.41;55.33;102081.47;5010177;28;20045;-69
2022/09/20 06:10:48;;;;;;;2.72;0.30;;;;;;;8.65;54.63;102077.66;5034298;28;20033;-71
2022/09/20 06:13:32;;;;;;;1.50;0.10;;;;;;;8.60;54.80;102077.72;5010325;28;20041;-70
2022/09/20 06:16:00;;;;;;;2.25;0.20;;;;;;;8.77;54.92;102080.16;5031944;28;20406;-70
2022/09/20 06:18:39;;;;;;;3.17;0.10;;;;;;;8.98;54.76;102079.88;5012818;28;20157;-71
2022/09/20 06:21:28;;;;;;;1.88;0.40;;;;;;;9.09;54.74;102079.72;5011395;28;20076;-73
2022/09/20 06:23:59;;;;;;;4.13;0.28;;;;;;;9.24;54.66;102081.25;5032672;28;20061;-71
2022/09/20 06:26:32;;;;;;;4.85;0.50;;;;;;;9.28;54.74;102092.50;5033534;28;20379;-72
2022/09/20 06:29:10;;;;;;;1.08;0.30;;;;;;;9.18;54.49;102081.31;5010584;28;20580;-70
2022/09/20 06:31:36;;;;;;;4.03;0.40;;;;;;;9.22;55.05;102085.63;5029766;28;20037;-71
2022/09/20 06:34:05;;;;;;;1.73;0.10;;;;;;;9.24;55.07;102088.22;5012734;28;20433;-69
2022/09/20 06:42:26;;;;;;;3.22;0.63;;;;;;;9.68;54.44;102084.88;5013041;28;20552;-70
2022/09/20 06:44:52;;;;;;;1.90;0.85;;;;;;;9.93;54.41;102081.88;5010458;28;20029;-71
2022/09/20 06:47:17;;;;;;;3.78;0.50;;;;;;;10.18;54.07;102090.13;5009100;28;20053;-71
2022/09/20 06:49:45;;;;;;;4.45;0.40;;;;;;;10.50;53.82;102079.03;5014238;28;20043;-69
2022/09/20 06:52:18;;;;;;;3.97;0.30;;;;;;;11.46;54.01;102076.03;5010424;28;20116;-71
2022/09/20 06:54:45;;;;;;;2.47;0.30;;;;;;;13.65;49.72;102078.50;5014611;28;20054;-71
2022/09/20 06:57:18;;;;;;;4.50;0.20;;;;;;;15.70;46.41;102076.00;5011605;28;20525;-70
2022/09/20 06:59:44;;;;;;;2.00;0.50;;;;;;;17.73;42.52;102069.19;5009347;28;20061;-70
2022/09/20 07:02:10;;;;;;;2.72;0.57;;;;;;;19.89;37.23;102072.19;5008223;28;20037;-69
2022/09/20 07:04:36;;;;;;;1.60;0.75;;;;;;;19.93;35.90;102076.34;5007052;28;20127;-70
2022/09/20 07:07:04;;;;;;;2.20;0.55;;;;;;;19.75;34.42;102073.03;5010333;28;20038;-70
2022/09/20 07:09:30;;;;;;;1.38;0.20;;;;;;;20.69;33.31;102086.66;5008773;28;20109;-70
2022/09/20 07:11:57;;;;;;;3.53;0.43;;;;;;;19.40;33.76;102083.03;5009643;28;20067;-71
2022/09/20 07:14:27;;;;;;;2.22;0.22;;;;;;;17.74;34.87;102103.50;5009623;28;20569;-71
2022/09/20 07:16:53;;;;;;;5.10;0.40;;;;;;;15.55;39.45;102103.84;5008671;28;20053;-73
2022/09/20 07:19:19;;;;;;;6.15;0.30;;;;;;;13.71;43.49;102132.59;5016011;28;20170;-67
2022/09/20 07:21:45;;;;;;;7.75;1.08;;;;;;;12.37;46.42;102138.34;5007522;28;20121;-67
2022/09/20 07:24:13;;;;;;;3.50;0.82;;;;;;;11.46;47.51;102141.50;5011314;28;20037;-66
2022/09/20 07:26:38;;;;;;;5.32;1.00;;;;;;;10.75;49.61;102136.03;5007093;28;20486;-67
2022/09/20 07:29:05;;;;;;;3.75;0.50;;;;;;;10.39;51.45;102138.50;5025572;28;20160;-67
2022/09/20 07:31:31;;;;;;;5.30;0.60;;;;;;;10.20;52.62;102138.00;5009873;28;20494;-66
2022/09/20 07:33:56;;;;;;;7.03;0.25;;;;;;;10.24;52.44;102137.03;5009746;28;20029;-67
2022/09/20 07:36:22;;;;;;;2.97;0.20;;;;;;;10.36;52.69;102133.34;5010267;28;20044;-67
2022/09/20 07:38:49;;;;;;;3.67;0.30;;;;;;;10.41;52.98;102141.94;5007966;28;20064;-67
2022/09/20 07:41:15;;;;;;;6.63;0.38;;;;;;;10.57;53.15;102143.38;5013726;28;20041;-68
2022/09/20 07:43:41;;;;;;;1.77;0.40;;;;;;;10.82;53.07;102145.53;5009464;28;20187;-69
2022/09/20 07:46:06;;;;;;;5.32;0.38;;;;;;;11.07;52.99;102148.47;5011046;28;20037;-70
2022/09/20 07:48:34;;;;;;;1.40;0.20;;;;;;;11.30;52.04;102145.34;5007575;28;20037;-68
2022/09/20 07:51:05;;;;;;;3.60;0.68;;;;;;;11.60;52.88;102142.91;5008814;28;20040;-69
2022/09/20 07:53:30;;;;;;;2.38;0.30;;;;;;;11.93;51.98;102154.31;5009565;28;20025;-68
2022/09/20 07:55:56;;;;;;;3.40;0.60;;;;;;;12.05;51.23;102153.16;5007937;28;20040;-69
2022/09/20 07:58:21;;;;;;;7.05;0.68;;;;;;;12.14;49.61;102155.56;5007098;28;20045;-69
2022/09/20 08:00:52;;;;;;;3.22;0.70;;;;;;;12.11;49.96;102154.75;5011230;28;20033;-69
2022/09/20 08:03:17;;;;;;;3.50;0.22;;;;;;;11.77;49.57;102164.31;5008637;28;20053;-69
2022/09/20 08:05:43;;;;;;;1.30;0.30;;;;;;;11.92;49.78;102170.09;5009988;28;20041;-70
2022/09/20 08:08:08;;;;;;;0.82;0.20;;;;;;;12.39;49.50;102166.22;5008958;28;20060;-70
2022/09/20 08:10:33;;;;;;;4.57;0.52;;;;;;;12.65;49.17;102173.38;5010820;28;20127;-70
2022/09/20 08:12:59;;;;;;;6.22;0.40;;;;;;;12.54;49.36;102171.97;5008309;28;20076;-70
2022/09/20 08:15:25;;;;;;;1.33;0.20;;;;;;;12.38;49.65;102182.88;5009351;28;20053;-70
2022/09/20 08:17:50;;;;;;;9.48;0.73;;;;;;;11.81;49.82;102178.22;5007272;28;20480;-70
2022/09/20 08:20:16;;;;;;;3.55;0.22;;;;;;;12.06;49.38;102181.94;5008702;28;20033;-70
2022/09/20 08:22:43;;;;;;;0.57;0.20;;;;;;;12.18;48.89;102183.41;5008364;28;20059;-69
2022/09/20 08:25:09;;;;;;;5.80;0.22;;;;;;;12.18;48.79;102183.41;5009485;28;20139;-69
2022/09/20 08:27:34;;;;;;;2.10;0.25;;;;;;;12.04;47.70;102180.25;5007387;28;21234;-70
2022/09/20 08:30:00;;;;;;;2.67;0.30;;;;;;;11.94;47.91;102173.56;5007181;28;20042;-70
2022/09/20 08:32:25;;;;;;;2.50;0.13;;;;;;;12.12;47.88;102178.31;5006274;28;20080;-70
2022/09/20 08:34:50;;;;;;;2.70;0.22;;;;;;;12.27;47.82;102177.06;5007370;28;20402;-70
2022/09/20 08:37:16;;;;;;;2.88;0.17;;;;;;;12.39;47.35;102187.22;5007592;28;20391;-71
2022/09/20 08:39:41;;;;;;;2.20;0.52;;;;;;;12.58;48.00;102182.34;5007182;28;20084;-71
2022/09/20 08:42:27;;;;;;;1.38;0.17;;;;;;;12.72;46.89;102181.13;5009665;28;20049;-70
2022/09/20 08:44:58;;;;;;;1.90;0.13;;;;;;;12.96;45.76;102182.16;5008564;28;20083;-71
2022/09/20 08:47:28;;;;;;;2.23;0.10;;;;;;;13.21;45.71;102177.91;5012720;28;20060;-71
2022/09/20 08:49:54;;;;;;;1.98;0.30;;;;;;;13.55;45.48;102182.09;5005814;28;20308;-71
2022/09/20 08:52:36;;;;;;;6.10;0.60;;;;;;;14.05;44.25;102184.00;5006225;28;20045;-71
2022/09/20 08:55:12;;;;;;;4.20;1.00;;;;;;;14.38;42.08;102181.13;5006659;28;20033;-71
2022/09/20 08:57:37;;;;;;;1.58;0.20;;;;;;;14.55;39.22;102184.91;5028358;28;20516;-72
2022/09/20 09:00:16;;;;;;;1.13;0.17;;;;;;;14.63;40.24;102174.09;5008232;28;20034;-71
2022/09/20 09:02:42;;;;;;;2.85;0.65;;;;;;;14.80;39.92;102177.91;5007126;28;20077;-71
2022/09/20 09:05:47;;;;;;;5.35;1.00;;;;;;;15.67;39.76;102173.66;5004788;28;20120;-70
2022/09/20 09:08:16;;;;;;;2.20;0.10;;;;;;;16.18;37.29;102177.69;5006317;28;20509;-70
2022/09/20 09:10:46;;;;;;;1.13;0.10;;;;;;;16.25;38.09;102181.78;5014504;28;20048;-70
2022/09/20 09:13:30;;;;;;;1.83;0.10;;;;;;;15.87;38.68;102170.19;5005836;28;20077;-70
2022/09/20 09:16:01;;;;;;;8.30;0.98;;;;;;;15.41;38.31;102172.91;5009139;28;20034;-71
2022/09/20 09:18:33;;;;;;;2.08;0.20;;;;;;;15.42;40.30;102174.66;5009959;28;20128;-71
2022/09/20 09:21:03;;;;;;;1.48;0.10;;;;;;;15.17;41.19;102182.63;5007341;28;20041;-70
2022/09/20 09:23:34;;;;;;;17.73;0.80;;;;;;;15.11;41.16;102178.44;4990290;28;20041;-70
2022/09/20 09:26:04;;;;;;;2.65;0.15;;;;;;;15.53;39.00;102182.13;5003666;28;20061;-71
2022/09/20 09:28:30;;;;;;;2.95;0.50;;;;;;;16.61;38.10;102184.56;5005770;28;20104;-70
2022/09/20 09:31:13;;;;;;;1.50;0.68;;;;;;;16.15;39.58;102183.06;5009934;28;20179;-69
2022/09/20 09:33:45;;;;;;;2.63;0.10;;;;;;;15.16;39.84;102188.81;5011378;28;20072;-71
2022/09/20 09:36:29;;;;;;;5.68;0.50;;;;;;;14.98;41.06;102191.22;5012606;28;20042;-71
2022/09/20 09:39:20;;;;;;;2.53;0.20;;;;;;;14.53;41.19;102196.41;5012986;28;20929;-69
2022/09/20 09:41:45;;;;;;;7.32;0.63;;;;;;;15.17;41.37;102196.66;5011378;28;20037;-70
2022/09/20 09:44:34;;;;;;;3.28;0.17;;;;;;;15.69;40.74;102193.75;5012318;28;20608;-69
2022/09/20 09:47:00;;;;;;;8.32;0.65;;;;;;;16.39;39.49;102200.47;5014020;28;20087;-71
2022/09/20 09:49:34;;;;;;;6.97;0.10;;;;;;;16.93;36.36;102199.88;5013642;28;20052;-70
2022/09/20 09:52:23;;;;;;;2.25;0.10;;;;;;;16.71;35.88;102197.34;5013375;28;20526;-73
2022/09/20 09:54:50;;;;;;;1.23;0.10;;;;;;;17.17;37.18;102198.75;5013527;28;20056;-70
2022/09/20 09:57:16;;;;;;;6.15;0.20;;;;;;;17.57;35.66;102190.72;5011228;28;20044;-70
2022/09/20 10:00:06;;;;;;;4.47;0.35;;;;;;;16.89;35.64;102198.31;5017613;28;20034;-70
2022/09/20 10:02:41;;;;;;;1.83;0.10;;;;;;;16.50;35.67;102207.94;5010108;28;20124;-69
2022/09/20 10:05:10;;;;;;;2.38;0.45;;;;;;;15.06;38.90;102214.63;5010101;28;20032;-70
2022/09/20 10:07:45;;;;;;;6.55;0.30;;;;;;;14.49;40.60;102213.22;5015713;28;20049;-70
2022/09/20 10:10:25;;;;;;;2.88;0.15;;;;;;;13.85;42.43;102211.84;5013998;28;20108;-70
2022/09/20 10:13:17;;;;;;;1.70;0.10;;;;;;;13.57;43.50;102217.09;5012293;28;20563;-69
2022/09/20 10:15:45;;;;;;;2.53;0.30;;;;;;;13.69;43.43;102215.84;5033508;28;20504;-71
2022/09/20 10:18:37;;;;;;;4.13;0.20;;;;;;;13.79;43.89;102212.03;5016621;28;20057;-69
2022/09/20 10:21:13;;;;;;;2.60;0.25;;;;;;;14.27;43.77;102213.91;5011940;28;20060;-70
2022/09/20 10:23:50;;;;;;;3.45;0.10;;;;;;;14.62;43.10;102208.38;5009199;28;20046;-70
2022/09/20 10:26:53;;;;;;;6.03;0.30;;;;;;;14.56;42.42;102204.19;5013052;28;20113;-71
2022/09/20 10:29:38;;;;;;;4.95;0.10;;;;;;;14.32;42.58;102212.00;5011806;28;20033;-69
2022/09/20 10:32:34;;;;;;;3.70;0.30;;;;;;;14.50;42.08;102205.28;5030231;28;20617;-71
2022/09/20 10:35:18;;;;;;;3.17;0.40;;;;;;;14.95;42.14;102206.28;5012666;28;20033;-70
2022/09/20 10:38:02;;;;;;;4.85;0.17;;;;;;;16.13;39.79;102208.66;5012019;28;20064;-70
2022/09/20 10:43:39;;;;;;;1.60;0.20;;;;;;;16.24;37.10;102206.41;5015774;28;20421;-70
2022/09/20 10:46:12;;;;;;;4.95;0.45;;;;;;;16.13;37.21;102201.63;5010139;28;20404;-70
2022/09/20 10:48:47;;;;;;;1.00;0.28;;;;;;;16.20;38.01;102202.22;5009876;28;20298;-70
2022/09/20 10:51:39;;;;;;;3.83;0.63;;;;;;;16.41;36.75;102203.06;5011402;28;20095;-70
2022/09/20 10:54:23;;;;;;;;;;;;;;;16.31;37.51;102202.63;4998671;28;20099;-70
2022/09/20 10:56:55;;;;;;;2.45;0.30;;;;;;;15.96;39.01;102197.03;5010807;28;19920;-71
2022/09/20 10:59:23;;;;;;;2.63;1.05;;;;;;;15.58;39.44;102202.09;5010259;28;20103;-70
2022/09/20 11:01:57;;;;;;;6.05;0.45;;;;;;;15.22;39.48;102212.31;5009730;28;20046;-69
2022/09/20 11:04:25;;;;;;;3.42;0.10;;;;;;;14.92;40.54;102211.66;5008380;28;20733;-72
2022/09/20 11:07:18;;;;;;;2.22;0.73;;;;;;;15.02;40.41;102212.19;5011190;28;20038;-69
2022/09/20 11:10:15;;;;;;;3.75;0.38;;;;;;;14.73;41.31;102217.59;4999108;28;20064;-70
2022/09/20 11:12:50;;;;;;;4.57;0.77;;;;;;;14.80;40.89;102217.38;5004070;28;20092;-69
2022/09/20 11:16:02;;;;;;;3.63;0.10;;;;;;;15.33;39.87;102214.53;5008822;28;20029;-70
2022/09/20 11:18:51;;;;;;;5.00;0.20;;;;;;;16.42;39.92;102213.56;5011335;28;20470;-68
2022/09/20 11:21:27;;;;;;;1.40;0.20;;;;;;;16.17;34.66;102215.53;5009662;28;20626;-70
2022/09/20 11:24:04;;;;;;;4.78;0.10;;;;;;;16.91;34.42;102218.47;5007958;28;20604;-70
2022/09/20 11:26:42;;;;;;;2.28;0.40;;;;;;;16.48;33.75;102214.19;5008070;28;20502;-70
2022/09/20 11:29:35;;;;;;;10.13;0.63;;;;;;;16.52;33.81;102218.44;5013498;28;20590;-70
2022/09/20 11:32:16;;;;;;;3.08;0.20;;;;;;;16.56;33.54;102214.72;5008125;28;20167;-70
2022/09/20 11:34:52;;;;;;;9.65;0.20;;;;;;;16.36;32.83;102211.19;5009362;28;20029;-70
2022/09/20 11:37:20;;;;;;;7.65;0.20;;;;;;;15.69;34.97;102219.25;5010966;28;20132;-70
2022/09/20 11:39:53;;;;;;;2.45;0.50;;;;;;;15.78;34.41;102218.88;5030520;28;20719;-70
2022/09/20 11:42:24;;;;;;;3.20;0.15;;;;;;;15.46;34.96;102228.06;5011402;28;20088;-70
2022/09/20 11:44:50;;;;;;;4.97;0.93;;;;;;;15.20;36.13;102231.69;5011386;28;20037;-70
2022/09/20 11:47:34;;;;;;;3.95;0.30;;;;;;;14.88;36.30;102231.09;5007855;28;20041;-69
2022/09/20 11:50:34;;;;;;;3.65;0.30;;;;;;;14.81;37.14;102225.19;5009608;28;20044;-70
2022/09/20 11:53:12;;;;;;;7.38;0.20;;;;;;;15.56;35.53;102222.38;5013814;28;20038;-69
2022/09/20 11:55:49;;;;;;;2.90;0.40;;;;;;;15.69;34.67;102220.09;5009970;28;20090;-70
2022/09/20 11:58:19;;;;;;;7.53;0.70;;;;;;;16.87;33.83;102231.84;5010590;28;20049;-68
2022/09/20 12:00:49;;;;;;;5.05;0.30;;;;;;;16.73;33.19;102219.25;5008349;28;20176;-69
2022/09/20 12:03:39;;;;;;;5.55;0.30;;;;;;;16.26;34.05;102222.19;5013326;28;20050;-69
2022/09/20 12:06:16;;;;;;;2.38;0.20;;;;;;;16.61;34.34;102220.66;5000944;28;20506;-69
2022/09/20 12:08:47;;;;;;;4.55;0.30;;;;;;;16.62;34.47;102211.81;5009434;28;20124;-69
2022/09/20 12:11:14;;;;;;;3.20;0.10;;;;;;;15.65;34.49;102217.66;5031927;28;20605;-69
2022/09/20 12:13:51;;;;;;;4.07;0.28;;;;;;;15.71;36.13;102228.81;5011909;28;20042;-69
2022/09/20 12:16:44;;;;;;;2.45;0.47;;;;;;;15.89;36.10;102227.19;5009170;28;20037;-69
2022/09/20 12:19:13;;;;;;;5.10;0.55;;;;;;;15.68;35.94;102233.34;5006756;28;20045;-69
2022/09/20 12:22:07;;;;;;;10.00;0.35;;;;;;;15.64;35.14;102226.47;5024220;28;20025;-69
2022/09/20 12:24:41;;;;;;;3.75;0.20;;;;;;;15.22;37.40;102229.88;4984278;28;20045;-68
2022/09/20 12:27:42;;;;;;;2.70;0.10;;;;;;;15.74;36.63;102236.59;5011706;28;20125;-70
2022/09/20 12:30:19;;;;;;;3.28;0.28;;;;;;;15.39;36.13;102237.97;5010318;28;20033;-69
2022/09/20 12:32:55;;;;;;;3.10;0.10;;;;;;;15.62;35.83;102233.56;5008318;28;20080;-69